Time;durP1;ratioP1;P1;durP2;ratioP2;P2;SDS_P1;SDS_P2;PMS_P1;PMS_P2;Temp;Humidity;BMP_temperature;BMP_pressure;BME280_temperature;BME280_humidity;BME280_pressure;Samples;Min_cycle;Max_cycle;Signal;HPM_P1;HPM_P2
2023/09/25 00:01:27;;;;;;;6.60;4.30;;;;;;;14.00;76.47;99722.95;435208;1256;99240;-42
2023/09/25 00:11:34;;;;;;;7.00;4.50;;;;;;;14.02;76.87;99712.65;435102;1257;111781;-42
2023/09/25 00:21:42;;;;;;;8.00;5.10;;;;;;;14.05;76.90;99712.94;435317;1252;106910;-43
2023/09/25 00:31:49;;;;;;;8.70;5.30;;;;;;;13.97;77.03;99728.52;435284;1253;477117;-43
2023/09/25 00:41:56;;;;;;;6.00;4.30;;;;;;;13.99;77.06;99731.06;435197;1254;107592;-42
2023/09/25 01:12:17;;;;;;;6.20;4.90;;;;;;;14.04;77.28;99714.55;435216;1253;107811;-42
2023/09/25 01:22:25;;;;;;;9.40;4.70;;;;;;;14.03;77.34;99712.45;435134;1256;99260;-42
2023/09/25 01:32:32;;;;;;;7.70;4.60;;;;;;;14.13;77.33;99713.80;435195;1253;108100;-41
2023/09/25 01:42:39;;;;;;;6.10;4.80;;;;;;;14.14;77.47;99716.36;435248;1256;99377;-42
2023/09/25 02:02:53;;;;;;;8.20;4.50;;;;;;;14.09;77.76;99692.23;434942;1258;108707;-43
2023/09/25 02:13:00;;;;;;;10.00;4.40;;;;;;;14.08;77.79;99687.11;435164;1258;99208;-43
2023/09/25 02:23:08;;;;;;;10.90;5.10;;;;;;;14.10;78.08;99689.13;434968;1253;107814;-43
2023/09/25 02:33:15;;;;;;;9.50;4.70;;;;;;;14.00;78.13;99695.88;435048;1253;97977;-43
2023/09/25 02:53:28;;;;;;;5.10;4.10;;;;;;;13.90;78.45;99683.70;434953;1257;106468;-42
2023/09/25 03:23:46;;;;;;;7.10;5.00;;;;;;;13.88;78.97;99681.34;435089;1266;99207;-44
2023/09/25 03:33:53;;;;;;;5.20;4.00;;;;;;;13.84;79.12;99677.75;435123;1256;111591;-43
2023/09/25 03:44:00;;;;;;;6.00;3.90;;;;;;;13.84;79.00;99684.46;435071;1255;108161;-43
2023/09/25 03:54:06;;;;;;;6.10;3.80;;;;;;;13.86;79.11;99690.02;434974;1253;99253;-43
2023/09/25 04:04:13;;;;;;;5.40;4.40;;;;;;;13.80;79.22;99686.89;435279;1257;107388;-42
2023/09/25 04:14:21;;;;;;;5.80;3.60;;;;;;;13.77;79.37;99693.15;435199;1256;99237;-43
2023/09/25 04:24:28;;;;;;;7.40;4.50;;;;;;;13.80;79.43;99686.16;435135;1255;111368;-43
2023/09/25 04:44:41;;;;;;;6.90;3.80;;;;;;;13.77;79.56;99692.78;435103;1266;99234;-42
2023/09/25 04:54:49;;;;;;;5.50;3.60;;;;;;;13.81;79.70;99712.08;435119;1256;109301;-42
2023/09/25 05:04:56;;;;;;;6.80;4.60;;;;;;;13.88;79.81;99708.37;435195;1256;99225;-44
2023/09/25 05:25:09;;;;;;;7.50;4.60;;;;;;;13.99;79.80;99714.33;435099;1253;108225;-43
2023/09/25 05:35:18;;;;;;;9.10;6.00;;;;;;;14.08;79.89;99721.36;435275;1256;97915;-42
2023/09/25 05:45:25;;;;;;;19.20;6.00;;;;;;;14.30;80.00;99726.02;435240;1267;107724;-41
2023/09/25 05:55:32;;;;;;;10.50;5.70;;;;;;;14.58;80.18;99736.23;435250;1256;99250;-41
2023/09/25 06:05:38;;;;;;;9.50;7.40;;;;;;;14.72;80.40;99738.58;435190;1256;112274;-44
2023/09/25 06:15:46;;;;;;;7.70;6.50;;;;;;;14.81;80.78;99737.91;435131;1254;107165;-43
2023/09/25 06:36:00;;;;;;;9.00;5.90;;;;;;;14.82;81.33;99729.36;435172;1252;109499;-43
2023/09/25 06:46:08;;;;;;;7.90;6.70;;;;;;;14.84;82.00;99732.08;435324;1254;99217;-44
2023/09/25 06:56:14;;;;;;;8.20;6.30;;;;;;;14.94;81.75;99732.42;435177;1266;111272;-43
2023/09/25 07:06:20;;;;;;;7.00;6.10;;;;;;;15.06;81.97;99731.69;435142;1256;108178;-43
2023/09/25 07:16:26;;;;;;;10.70;6.10;;;;;;;15.22;82.42;99734.04;435032;1254;99233;-43
2023/09/25 07:36:38;;;;;;;5.90;5.10;;;;;;;15.59;82.16;99733.91;435088;1256;98014;-43
2023/09/25 07:56:52;;;;;;;8.70;6.30;;;;;;;16.09;81.90;99741.59;435165;1257;107768;-42
2023/09/25 08:06:59;;;;;;;7.00;4.80;;;;;;;16.29;81.64;99738.96;435116;1257;99278;-44
2023/09/25 08:17:08;;;;;;;7.60;4.60;;;;;;;16.49;81.67;99735.63;435125;1256;108690;-42
2023/09/25 08:27:16;;;;;;;6.70;4.40;;;;;;;16.72;81.42;99728.66;435222;1254;99256;-44
2023/09/25 08:37:24;;;;;;;5.10;3.90;;;;;;;16.94;80.91;99729.23;435196;1257;110750;-42
2023/09/25 08:57:40;;;;;;;4.40;3.60;;;;;;;17.34;79.99;99738.63;435323;1254;99201;-42
2023/09/25 09:07:59;;;;;;;5.50;5.00;;;;;;;17.40;79.62;99740.69;435041;1257;107483;-42
2023/09/25 09:38:29;;;;;;;8.70;4.80;;;;;;;17.87;79.05;99718.50;435376;1254;106668;-42
2023/09/25 09:48:39;;;;;;;6.00;3.60;;;;;;;18.15;78.71;99703.16;435217;1253;99237;-41
2023/09/25 09:58:47;;;;;;;5.50;3.00;;;;;;;18.32;77.86;99704.04;435239;1258;107588;-42
2023/09/25 10:09:02;;;;;;;4.70;3.70;;;;;;;18.53;77.78;99698.54;435121;1253;99247;-43
2023/09/25 10:19:19;;;;;;;6.10;3.10;;;;;;;18.69;76.80;99704.64;435327;1256;111194;-42
2023/09/25 10:29:25;;;;;;;3.90;3.20;;;;;;;18.87;76.12;99699.20;435274;1256;108479;-42
2023/09/25 10:39:32;;;;;;;7.50;3.40;;;;;;;18.89;75.29;99692.52;435309;1251;99228;-43
2023/09/25 10:49:39;;;;;;;3.50;3.20;;;;;;;18.90;75.17;99702.59;435204;1255;109528;-42
2023/09/25 10:59:47;;;;;;;3.20;2.90;;;;;;;18.75;74.59;99706.03;435105;1257;98827;-42
2023/09/25 11:09:54;;;;;;;5.20;3.40;;;;;;;18.68;74.91;99704.26;435247;1256;112000;-42
2023/09/25 11:30:14;;;;;;;3.70;2.20;;;;;;;18.63;74.99;99708.87;435214;1254;99360;-42
2023/09/25 11:40:21;;;;;;;4.40;3.50;;;;;;;18.59;75.46;99704.37;435320;1256;107742;-42
2023/09/25 11:50:27;;;;;;;7.20;3.20;;;;;;;18.61;75.27;99702.35;435187;1255;97932;-42
2023/09/25 12:00:34;;;;;;;3.80;2.90;;;;;;;18.65;75.31;99707.92;435144;1255;112934;-43
2023/09/25 12:10:41;;;;;;;4.50;3.70;;;;;;;18.58;75.12;99709.40;435230;1254;109120;-45
2023/09/25 12:20:48;;;;;;;9.00;3.60;;;;;;;18.51;75.06;99698.58;435241;1252;99247;-43
2023/09/25 12:30:56;;;;;;;8.30;3.40;;;;;;;18.64;75.51;99686.91;434708;1255;492944;-42
2023/09/25 12:51:09;;;;;;;3.00;2.80;;;;;;;18.81;75.12;99678.42;435100;1256;111784;-44
2023/09/25 13:01:17;;;;;;;4.30;3.30;;;;;;;18.86;75.16;99681.77;435126;1256;109368;-43
2023/09/25 13:11:28;;;;;;;4.60;3.30;;;;;;;18.92;75.13;99687.39;435240;1253;99223;-43
2023/09/25 13:21:36;;;;;;;3.20;2.50;;;;;;;18.91;74.78;99681.59;435181;1256;109893;-42
2023/09/25 13:41:49;;;;;;;3.70;3.40;;;;;;;19.01;75.14;99678.13;435210;1256;111794;-42
2023/09/25 13:51:55;;;;;;;5.40;4.40;;;;;;;18.95;75.06;99679.27;435136;1255;108205;-42
2023/09/25 14:02:03;;;;;;;8.00;3.80;;;;;;;18.89;74.95;99674.66;435080;1256;99362;-43
2023/09/25 14:32:20;;;;;;;3.90;3.60;;;;;;;18.98;75.30;99663.64;435151;1255;112149;-42
2023/09/25 14:52:33;;;;;;;4.10;3.60;;;;;;;19.02;75.57;99658.83;435199;1252;98056;-43
2023/09/25 15:22:54;;;;;;;15.90;8.90;;;;;;;18.83;75.75;99667.39;435268;1253;110877;-42
2023/09/25 15:32:59;;;;;;;10.40;5.30;;;;;;;18.78;76.03;99669.52;435129;1256;107876;-43
2023/09/25 15:53:12;;;;;;;9.00;4.20;;;;;;;18.60;76.25;99660.23;435103;1252;108308;-42
2023/09/25 16:03:20;;;;;;;9.80;4.00;;;;;;;18.50;76.69;99665.10;435037;1253;97973;-42
2023/09/25 16:13:28;;;;;;;7.60;5.10;;;;;;;18.39;77.02;99668.16;435322;1255;112461;-43
2023/09/25 16:23:35;;;;;;;7.50;4.60;;;;;;;18.27;77.19;99669.19;435281;1255;110237;-42
2023/09/25 16:33:42;;;;;;;7.80;4.40;;;;;;;18.23;77.48;99668.63;435145;1256;99346;-43
2023/09/25 16:53:56;;;;;;;11.40;5.30;;;;;;;18.03;77.95;99671.65;435101;1255;99107;-42
2023/09/25 17:04:03;;;;;;;9.00;5.30;;;;;;;17.98;78.21;99673.99;435072;1255;112022;-42
2023/09/25 17:14:10;;;;;;;6.30;5.10;;;;;;;17.97;78.55;99685.80;435163;1256;108296;-43
2023/09/25 17:34:26;;;;;;;8.50;5.40;;;;;;;17.85;78.82;99694.08;435210;1252;108310;-42
2023/09/25 17:44:32;;;;;;;7.10;5.30;;;;;;;17.85;79.05;99691.52;435109;1255;99228;-42
2023/09/25 17:54:39;;;;;;;8.80;6.00;;;;;;;17.85;79.21;99688.38;435210;1255;112139;-42
2023/09/25 18:04:45;;;;;;;9.10;6.80;;;;;;;17.84;79.20;99689.11;435263;1255;109852;-43
2023/09/25 18:14:53;;;;;;;10.30;6.40;;;;;;;17.79;79.51;99693.88;435231;1255;99263;-42
2023/09/25 18:24:59;;;;;;;9.80;6.60;;;;;;;17.79;79.65;99690.29;435200;1255;108247;-41
2023/09/25 18:35:06;;;;;;;9.30;7.60;;;;;;;17.88;79.78;99685.17;435046;1256;99250;-42
2023/09/25 18:45:13;;;;;;;13.80;8.40;;;;;;;17.78;80.00;99689.05;435176;1252;111030;-42
2023/09/25 18:55:18;;;;;;;8.20;7.20;;;;;;;17.71;80.09;99675.52;435114;1255;108255;-41
2023/09/25 19:05:24;;;;;;;11.90;7.10;;;;;;;17.60;80.16;99670.73;434985;1253;99214;-42
2023/09/25 19:25:35;;;;;;;14.30;9.30;;;;;;;17.52;80.63;99671.27;435127;1256;99301;-44
2023/09/25 19:45:49;;;;;;;12.80;8.90;;;;;;;17.36;80.84;99669.80;435091;1253;108617;-42
2023/09/25 19:55:56;;;;;;;24.40;11.80;;;;;;;17.18;81.01;99676.60;435196;1253;98095;-42
2023/09/25 20:06:02;;;;;;;8.90;7.80;;;;;;;16.83;80.92;99663.72;435201;1255;107415;-42
2023/09/25 20:16:08;;;;;;;13.90;9.60;;;;;;;16.62;81.12;99670.05;435269;1255;99221;-41
2023/09/25 20:46:26;;;;;;;13.90;9.70;;;;;;;16.29;82.20;99678.11;435097;1255;99382;-43
2023/09/25 20:56:34;;;;;;;16.60;10.60;;;;;;;16.33;82.35;99677.77;435087;1253;107519;-42
2023/09/25 21:06:41;;;;;;;14.80;9.00;;;;;;;16.28;82.44;99666.94;435179;1256;99227;-43
2023/09/25 21:26:51;;;;;;;10.50;9.30;;;;;;;16.62;83.55;99662.37;435096;1254;107080;-43
2023/09/25 21:36:58;;;;;;;17.50;9.40;;;;;;;16.69;83.69;99658.11;434987;1256;99247;-43
2023/09/25 21:47:06;;;;;;;13.20;9.60;;;;;;;16.69;83.87;99655.40;435184;1256;108195;-43
2023/09/25 21:57:13;;;;;;;12.20;8.80;;;;;;;16.68;83.93;99650.30;435180;1253;99278;-43
2023/09/25 22:17:25;;;;;;;9.50;8.40;;;;;;;16.63;84.20;99633.80;435110;1253;107144;-42
2023/09/25 22:27:32;;;;;;;9.70;8.00;;;;;;;16.57;84.31;99623.10;435048;1256;99228;-42
2023/09/25 22:37:39;;;;;;;10.50;9.00;;;;;;;16.50;84.59;99608.46;435086;1252;110161;-42
2023/09/25 22:57:53;;;;;;;9.80;8.80;;;;;;;16.32;84.70;99591.32;435136;1255;111506;-41
2023/09/25 23:08:00;;;;;;;16.40;8.40;;;;;;;16.09;84.58;99584.29;434969;1260;107235;-42
2023/09/25 23:18:07;;;;;;;16.80;9.30;;;;;;;15.98;84.52;99576.14;435045;1253;99150;-42
2023/09/25 23:28:15;;;;;;;12.70;8.60;;;;;;;15.79;84.65;99572.47;435163;1255;108506;-42
2023/09/25 23:38:22;;;;;;;10.60;8.80;;;;;;;15.81;84.96;99562.63;435179;1255;99246;-41
2023/09/25 23:48:29;;;;;;;13.60;9.10;;;;;;;15.90;85.12;99566.32;435135;1256;112045;-41
